Time;durP1;ratioP1;P1;durP2;ratioP2;P2;SDS_P1;SDS_P2;PMS_P1;PMS_P2;Temp;Humidity;BMP_temperature;BMP_pressure;BME280_temperature;BME280_humidity;BME280_pressure;Samples;Min_cycle;Max_cycle;Signal;HPM_P1;HPM_P2
2022/06/16 00:00:54;;;;;;;4.50;1.63;;;18.70;99.90;;;;;;5088091;28;20406;-59
2022/06/16 00:03:20;;;;;;;2.97;1.50;;;18.60;99.90;;;;;;5089861;28;20409;-59
2022/06/16 00:05:46;;;;;;;3.58;1.50;;;18.50;99.90;;;;;;5092303;28;20381;-59
2022/06/16 00:08:14;;;;;;;3.05;1.30;;;18.50;99.90;;;;;;5093569;28;20382;-59
2022/06/16 00:13:25;;;;;;;3.22;1.33;;;18.50;99.90;;;;;;5091205;28;20380;-59
2022/06/16 00:15:50;;;;;;;2.45;1.20;;;18.40;99.90;;;;;;5091403;28;20465;-57
2022/06/16 00:18:16;;;;;;;3.93;1.43;;;18.40;99.90;;;;;;5088824;28;20587;-59
2022/06/16 00:20:42;;;;;;;4.30;1.60;;;18.30;99.90;;;;;;5085477;28;20405;-59
2022/06/16 00:23:08;;;;;;;2.42;1.33;;;18.30;99.90;;;;;;5086102;28;20618;-59
2022/06/16 00:25:34;;;;;;;3.13;1.42;;;18.20;99.90;;;;;;5087999;28;20394;-57
2022/06/16 00:27:59;;;;;;;3.65;1.30;;;18.30;99.90;;;;;;5089664;28;20650;-59
2022/06/16 00:30:25;;;;;;;3.50;1.40;;;18.30;99.90;;;;;;5089705;28;20869;-59
2022/06/16 00:32:50;;;;;;;3.47;1.30;;;18.20;99.90;;;;;;5090898;28;20386;-59
2022/06/16 00:35:16;;;;;;;4.00;1.23;;;18.10;99.90;;;;;;5091890;28;20385;-59
2022/06/16 00:37:42;;;;;;;1.90;1.25;;;18.10;99.90;;;;;;5093079;28;20381;-59
2022/06/16 00:40:09;;;;;;;2.73;1.27;;;18.10;99.90;;;;;;5094815;28;20467;-58
2022/06/16 00:42:35;;;;;;;2.47;1.30;;;18.00;99.90;;;;;;5095628;28;20847;-58
2022/06/16 00:45:01;;;;;;;3.70;1.20;;;18.00;99.90;;;;;;5110775;28;20396;-59
2022/06/16 00:47:29;;;;;;;3.00;1.38;;;18.00;99.90;;;;;;5091836;28;20374;-59
2022/06/16 00:49:59;;;;;;;3.40;1.35;;;17.90;99.90;;;;;;5093685;28;20382;-59
2022/06/16 00:52:28;;;;;;;3.10;1.50;;;17.80;99.90;;;;;;5093453;28;20432;-59
2022/06/16 00:55:06;;;;;;;3.72;1.25;;;17.80;99.90;;;;;;5091704;28;20590;-59
2022/06/16 00:57:41;;;;;;;3.65;1.15;;;17.80;99.90;;;;;;5092919;28;20852;-57
2022/06/16 01:00:52;;;;;;;3.95;1.30;;;17.80;99.90;;;;;;5094307;28;20498;-59
2022/06/16 01:02:59;;;;;;;3.85;1.50;;;17.80;99.90;;;;;;5086049;28;20835;-59
2022/06/16 01:05:24;;;;;;;2.60;1.40;;;17.70;99.90;;;;;;5091555;28;20459;-58
2022/06/16 01:07:52;;;;;;;3.03;1.60;;;17.60;99.90;;;;;;5090171;28;20605;-59
2022/06/16 01:10:18;;;;;;;4.00;1.20;;;17.60;99.90;;;;;;5106177;28;20393;-54
2022/06/16 01:16:33;;;;;;;3.05;1.50;;;17.60;99.90;;;;;;5092262;28;20741;-59
2022/06/16 01:19:12;;;;;;;3.67;1.47;;;17.50;99.90;;;;;;5108345;28;20382;-58
2022/06/16 01:22:14;;;;;;;3.30;1.63;;;17.50;99.90;;;;;;5090113;28;20429;-58
2022/06/16 01:24:59;;;;;;;3.33;1.45;;;17.40;99.90;;;;;;5091863;28;20398;-59
2022/06/16 01:27:54;;;;;;;4.38;1.50;;;17.40;99.90;;;;;;5092507;28;20413;-60
2022/06/16 01:30:32;;;;;;;3.35;1.40;;;17.40;99.90;;;;;;5092487;28;20386;-59
2022/06/16 01:33:17;;;;;;;3.17;1.80;;;17.40;99.90;;;;;;5092294;28;20392;-59
2022/06/16 01:36:08;;;;;;;3.95;1.50;;;17.30;99.90;;;;;;5092163;28;20421;-59
2022/06/16 01:39:09;;;;;;;2.60;1.30;;;17.30;99.90;;;;;;5092166;28;20390;-59
2022/06/16 01:41:48;;;;;;;3.17;1.60;;;17.30;99.90;;;;;;5083260;28;20599;-59
2022/06/16 01:44:23;;;;;;;4.10;1.50;;;17.30;99.90;;;;;;5092042;28;20396;-60
2022/06/16 01:46:56;;;;;;;3.03;1.35;;;17.30;99.90;;;;;;5088020;28;20679;-59
2022/06/16 01:49:31;;;;;;;3.15;1.40;;;17.30;99.90;;;;;;5088575;28;20385;-59
2022/06/16 01:52:10;;;;;;;4.32;1.73;;;17.20;99.90;;;;;;5086906;28;20374;-59
2022/06/16 01:54:43;;;;;;;3.08;1.40;;;17.30;99.90;;;;;;5089833;28;20393;-60
2022/06/16 01:57:14;;;;;;;3.55;1.45;;;17.10;99.90;;;;;;5089289;28;20389;-59
2022/06/16 01:59:48;;;;;;;1.98;1.30;;;17.20;99.90;;;;;;5090551;28;20378;-60
2022/06/16 02:02:17;;;;;;;3.35;1.52;;;17.20;99.90;;;;;;5088230;28;20421;-59
2022/06/16 02:05:07;;;;;;;3.83;1.38;;;17.20;99.90;;;;;;5090373;28;20394;-57
2022/06/16 02:07:46;;;;;;;3.40;1.40;;;17.20;99.90;;;;;;5088957;28;20377;-59
2022/06/16 02:10:24;;;;;;;4.32;1.58;;;17.20;99.90;;;;;;5092951;28;20657;-59
2022/06/16 02:12:58;;;;;;;4.30;1.50;;;17.20;99.90;;;;;;5089741;28;20679;-58
2022/06/16 02:16:03;;;;;;;3.60;1.60;;;17.10;99.90;;;;;;5089406;28;20385;-59
2022/06/16 02:18:33;;;;;;;2.67;1.43;;;17.00;99.90;;;;;;5087483;28;20552;-59
2022/06/16 02:21:12;;;;;;;2.23;1.60;;;16.90;99.90;;;;;;5086138;28;20702;-59
2022/06/16 02:23:37;;;;;;;2.72;1.42;;;16.90;99.90;;;;;;5088791;28;20474;-58
2022/06/16 02:26:03;;;;;;;6.18;1.58;;;16.90;99.90;;;;;;5089258;28;20404;-59
2022/06/16 02:28:29;;;;;;;2.63;1.38;;;16.90;99.90;;;;;;5091104;28;20677;-59
2022/06/16 02:31:01;;;;;;;4.97;1.60;;;16.90;99.90;;;;;;5091157;28;20647;-59
2022/06/16 02:33:54;;;;;;;2.10;1.48;;;17.00;99.90;;;;;;5089787;28;20858;-60
2022/06/16 02:36:50;;;;;;;2.90;1.40;;;17.00;99.90;;;;;;5089018;28;20374;-60
2022/06/16 02:39:44;;;;;;;2.92;1.33;;;16.90;99.90;;;;;;5090839;28;20415;-59
2022/06/16 02:42:17;;;;;;;3.70;1.60;;;17.00;99.90;;;;;;5091502;28;20390;-59
2022/06/16 02:45:00;;;;;;;2.33;1.50;;;16.90;99.90;;;;;;5090773;28;20389;-59
2022/06/16 02:47:45;;;;;;;2.45;1.45;;;16.90;99.90;;;;;;5089717;28;20370;-59
2022/06/16 02:50:23;;;;;;;1.70;1.30;;;16.90;99.90;;;;;;5088724;28;20498;-59
2022/06/16 02:52:57;;;;;;;2.38;1.20;;;16.80;99.90;;;;;;5089828;28;20378;-60
2022/06/16 02:55:36;;;;;;;2.28;1.60;;;16.80;99.90;;;;;;5088657;28;20386;-60
2022/06/16 02:58:03;;;;;;;5.38;1.40;;;16.80;99.90;;;;;;5089311;28;20397;-60
2022/06/16 03:00:39;;;;;;;4.45;1.92;;;16.80;99.90;;;;;;5089950;28;20398;-59
2022/06/16 03:03:27;;;;;;;2.75;1.50;;;16.70;99.90;;;;;;5090484;28;20467;-58
2022/06/16 03:05:55;;;;;;;3.33;1.77;;;16.80;99.90;;;;;;5087893;28;20388;-59
2022/06/16 03:08:23;;;;;;;3.80;1.70;;;16.60;99.90;;;;;;5088377;28;20657;-59
2022/06/16 03:10:52;;;;;;;4.17;1.53;;;16.60;99.90;;;;;;5087412;28;20404;-59
2022/06/16 03:13:23;;;;;;;2.55;1.35;;;16.60;99.90;;;;;;5106173;28;20390;-59
2022/06/16 03:16:04;;;;;;;2.90;1.77;;;16.60;99.90;;;;;;5088827;28;20389;-59
2022/06/16 03:18:30;;;;;;;3.47;1.70;;;16.60;99.90;;;;;;5084090;28;20423;-59
2022/06/16 03:20:56;;;;;;;3.27;1.63;;;16.50;99.90;;;;;;5084125;28;20414;-60
2022/06/16 03:23:21;;;;;;;3.00;1.58;;;16.50;99.90;;;;;;5087906;28;20413;-59
2022/06/16 03:25:47;;;;;;;2.60;1.38;;;16.60;99.90;;;;;;5085364;28;20436;-57
2022/06/16 03:28:14;;;;;;;3.30;1.60;;;16.50;99.90;;;;;;5085644;28;20771;-59
2022/06/16 03:30:40;;;;;;;3.80;1.77;;;16.50;99.90;;;;;;5088191;28;20754;-60
2022/06/16 03:33:08;;;;;;;2.95;1.50;;;16.50;99.90;;;;;;5086709;28;20592;-59
2022/06/16 03:35:34;;;;;;;3.80;1.57;;;16.50;99.90;;;;;;5086255;28;20474;-59
2022/06/16 03:38:02;;;;;;;2.45;1.60;;;16.40;99.90;;;;;;5086376;28;20382;-59
2022/06/16 03:40:28;;;;;;;3.80;1.50;;;16.40;99.90;;;;;;5087211;28;20460;-59
2022/06/16 03:42:53;;;;;;;3.00;1.67;;;16.50;99.90;;;;;;5092343;28;20384;-59
2022/06/16 03:45:19;;;;;;;4.47;1.60;;;16.50;99.90;;;;;;5091986;28;20393;-59
2022/06/16 03:47:45;;;;;;;2.45;1.33;;;16.50;99.90;;;;;;5090765;28;20414;-59
2022/06/16 03:50:14;;;;;;;2.78;1.52;;;16.50;99.90;;;;;;5090994;28;20559;-60
2022/06/16 03:52:40;;;;;;;2.42;1.48;;;16.50;99.90;;;;;;5088629;28;20796;-61
2022/06/16 03:55:07;;;;;;;3.13;1.63;;;16.50;99.90;;;;;;5087906;28;20400;-60
2022/06/16 03:57:32;;;;;;;3.70;1.60;;;16.40;99.90;;;;;;5088624;28;20451;-60
2022/06/16 03:59:58;;;;;;;3.97;1.70;;;16.40;99.90;;;;;;5090793;28;20381;-60
2022/06/16 04:02:23;;;;;;;3.72;1.67;;;16.40;99.90;;;;;;5087128;28;20400;-60
2022/06/16 04:04:49;;;;;;;4.80;1.60;;;16.50;99.90;;;;;;5088672;28;20413;-60
2022/06/16 04:07:14;;;;;;;3.00;1.53;;;16.40;99.90;;;;;;5089601;28;20420;-60
2022/06/16 04:09:40;;;;;;;5.50;1.60;;;16.50;99.90;;;;;;5091914;28;20454;-60
2022/06/16 04:12:06;;;;;;;4.73;1.70;;;16.40;99.90;;;;;;5089610;28;20744;-58
2022/06/16 04:14:32;;;;;;;3.10;1.63;;;16.40;99.90;;;;;;5092067;28;20444;-60
2022/06/16 04:16:58;;;;;;;3.83;1.88;;;16.40;99.90;;;;;;5091439;28;20384;-60
2022/06/16 04:19:27;;;;;;;3.55;1.70;;;16.40;99.90;;;;;;5108375;28;20390;-60
2022/06/16 04:21:53;;;;;;;3.38;1.98;;;16.40;99.90;;;;;;5093151;28;20404;-59
2022/06/16 04:24:20;;;;;;;3.13;1.90;;;16.40;99.90;;;;;;5090813;28;20422;-60
2022/06/16 04:26:47;;;;;;;4.43;1.80;;;16.40;99.90;;;;;;5089353;28;20389;-60
2022/06/16 04:29:14;;;;;;;3.00;1.65;;;16.40;99.90;;;;;;5091078;28;20374;-60
2022/06/16 04:31:40;;;;;;;3.60;1.60;;;16.40;99.90;;;;;;5091075;28;20431;-60
2022/06/16 04:34:05;;;;;;;3.80;1.77;;;16.40;99.90;;;;;;5089426;28;20378;-61
2022/06/16 04:36:31;;;;;;;4.05;1.92;;;16.40;99.90;;;;;;5088724;28;20386;-61
2022/06/16 04:38:58;;;;;;;3.55;1.98;;;16.40;99.90;;;;;;5087542;28;20385;-59
2022/06/16 04:41:24;;;;;;;3.25;1.70;;;16.40;99.90;;;;;;5082901;28;20463;-60
2022/06/16 04:43:50;;;;;;;4.47;1.70;;;16.40;99.90;;;;;;5082382;28;20382;-60
2022/06/16 04:46:18;;;;;;;4.93;2.00;;;16.40;99.90;;;;;;5083969;28;20703;-60
2022/06/16 04:48:44;;;;;;;4.00;1.63;;;16.40;99.90;;;;;;5086363;28;20546;-60
2022/06/16 04:51:11;;;;;;;4.80;1.95;;;16.40;99.90;;;;;;5084243;28;20378;-61
2022/06/16 04:53:37;;;;;;;3.30;1.60;;;16.40;99.90;;;;;;5083882;28;20664;-61
2022/06/16 04:56:04;;;;;;;4.15;1.58;;;16.50;99.90;;;;;;5084951;28;20558;-61
2022/06/16 04:58:30;;;;;;;4.55;1.85;;;16.50;99.90;;;;;;5085253;28;20386;-60
2022/06/16 05:00:56;;;;;;;5.22;1.95;;;16.40;99.90;;;;;;5084517;28;20405;-60
2022/06/16 05:03:27;;;;;;;3.55;2.00;;;16.50;99.90;;;;;;5081977;28;20414;-60
2022/06/16 05:05:54;;;;;;;3.10;1.70;;;16.50;99.90;;;;;;5080950;28;20572;-61
2022/06/16 05:08:20;;;;;;;2.77;1.70;;;16.50;99.90;;;;;;5081400;28;20385;-60
2022/06/16 05:10:47;;;;;;;3.70;1.50;;;16.50;99.90;;;;;;5081317;28;20417;-60
2022/06/16 05:13:14;;;;;;;3.10;1.67;;;16.50;99.90;;;;;;5080800;28;20386;-60
2022/06/16 05:15:40;;;;;;;4.13;1.70;;;16.50;99.90;;;;;;5082357;28;20571;-59
2022/06/16 05:18:07;;;;;;;4.27;1.80;;;16.60;99.90;;;;;;5083581;28;20816;-61
2022/06/16 05:20:33;;;;;;;6.00;2.10;;;16.60;99.90;;;;;;5083178;28;20805;-60
2022/06/16 05:22:58;;;;;;;5.03;2.00;;;16.70;99.90;;;;;;5085242;28;20489;-60
2022/06/16 05:25:25;;;;;;;5.70;2.40;;;16.60;99.90;;;;;;5085319;28;20466;-60
2022/06/16 05:27:51;;;;;;;4.40;2.17;;;16.40;99.90;;;;;;5086059;28;20586;-60
2022/06/16 05:30:16;;;;;;;6.47;2.00;;;16.30;99.90;;;;;;5087407;28;20381;-61
2022/06/16 05:32:43;;;;;;;4.38;2.05;;;16.40;99.90;;;;;;5086813;28;20699;-59
2022/06/16 05:35:09;;;;;;;6.07;2.47;;;16.40;99.90;;;;;;5087734;28;20412;-62
2022/06/16 05:37:34;;;;;;;6.03;2.20;;;16.30;99.90;;;;;;5086849;28;20378;-61
2022/06/16 05:40:00;;;;;;;4.78;2.25;;;16.30;99.90;;;;;;5084482;28;20402;-60
2022/06/16 05:42:26;;;;;;;4.80;2.28;;;16.30;99.90;;;;;;5084409;28;20454;-59
2022/06/16 05:44:51;;;;;;;4.30;2.50;;;16.30;99.90;;;;;;5084691;28;20378;-60
2022/06/16 05:47:17;;;;;;;4.40;2.47;;;16.20;99.90;;;;;;5082448;28;20800;-60
2022/06/16 05:49:44;;;;;;;6.50;2.30;;;16.20;99.90;;;;;;5078677;28;20652;-60
2022/06/16 05:52:13;;;;;;;4.00;2.33;;;16.20;99.90;;;;;;5077935;28;20774;-60
2022/06/16 05:54:40;;;;;;;3.58;2.40;;;16.30;99.90;;;;;;5077291;28;20643;-60
2022/06/16 05:57:08;;;;;;;4.38;2.25;;;16.30;99.90;;;;;;5077210;28;20432;-59
2022/06/16 05:59:34;;;;;;;3.22;2.03;;;16.30;99.90;;;;;;5076610;28;20603;-58
2022/06/16 06:02:00;;;;;;;5.25;2.13;;;16.30;99.90;;;;;;5079521;28;20731;-60
2022/06/16 06:04:26;;;;;;;2.97;2.00;;;16.40;99.90;;;;;;5078883;28;20821;-60
2022/06/16 06:06:52;;;;;;;5.68;2.38;;;16.40;99.90;;;;;;5077121;28;20382;-60
2022/06/16 06:17:30;;;;;;;4.32;2.30;;;16.50;99.90;;;;;;5074534;28;20392;-60
2022/06/16 06:19:56;;;;;;;3.90;2.00;;;16.60;99.90;;;;;;5092137;28;20390;-60
2022/06/16 06:22:26;;;;;;;7.28;2.63;;;16.70;99.90;;;;;;5093347;28;20390;-61
2022/06/16 06:24:58;;;;;;;6.47;2.70;;;16.70;99.90;;;;;;5075812;28;20412;-60
2022/06/16 06:27:41;;;;;;;3.60;2.03;;;16.70;99.90;;;;;;5076746;28;20412;-61
2022/06/16 06:30:18;;;;;;;5.15;2.22;;;16.70;99.90;;;;;;5075916;28;20390;-61
2022/06/16 06:32:44;;;;;;;5.78;2.15;;;16.70;99.90;;;;;;5078647;28;20978;-59
2022/06/16 06:35:11;;;;;;;4.63;2.08;;;16.70;99.90;;;;;;5077337;28;20551;-61
2022/06/16 06:37:36;;;;;;;5.35;2.40;;;16.80;99.90;;;;;;5076751;28;20405;-60
2022/06/16 06:40:03;;;;;;;5.22;2.10;;;16.90;99.90;;;;;;5074339;28;20386;-61
2022/06/16 06:42:29;;;;;;;3.70;2.08;;;16.90;99.90;;;;;;5073729;28;20662;-60
2022/06/16 06:44:55;;;;;;;3.40;1.75;;;17.00;99.90;;;;;;5093049;28;20996;-60
2022/06/16 06:47:27;;;;;;;3.97;1.98;;;17.00;99.90;;;;;;5094560;28;20378;-60
2022/06/16 06:49:53;;;;;;;2.60;1.90;;;17.00;99.90;;;;;;5078787;28;20378;-61
2022/06/16 06:52:18;;;;;;;5.20;1.70;;;17.00;99.90;;;;;;5075493;28;20413;-60
2022/06/16 06:54:45;;;;;;;4.10;1.80;;;17.10;99.90;;;;;;5077466;28;20452;-61
2022/06/16 06:57:31;;;;;;;3.25;1.42;;;17.20;99.90;;;;;;5077394;28;20900;-59
2022/06/16 06:59:57;;;;;;;4.55;1.70;;;17.30;99.90;;;;;;5078091;28;20737;-61
2022/06/16 07:02:22;;;;;;;4.22;1.80;;;17.40;99.90;;;;;;5077584;28;20488;-59
2022/06/16 07:04:48;;;;;;;4.07;1.60;;;17.40;99.90;;;;;;5079224;28;20417;-59
2022/06/16 07:07:18;;;;;;;3.87;1.53;;;17.40;99.90;;;;;;5078310;28;20472;-60
2022/06/16 07:09:44;;;;;;;3.92;1.52;;;17.50;99.90;;;;;;5077252;28;20783;-59
2022/06/16 07:12:14;;;;;;;2.42;1.55;;;17.50;99.90;;;;;;5093509;28;20473;-60
2022/06/16 07:14:41;;;;;;;3.60;1.40;;;17.60;99.90;;;;;;5076458;28;20378;-60
2022/06/16 07:17:07;;;;;;;4.28;1.40;;;17.70;99.90;;;;;;5073350;28;20378;-59
2022/06/16 07:19:34;;;;;;;2.55;1.55;;;17.70;99.90;;;;;;5072136;28;20393;-59
2022/06/16 07:22:00;;;;;;;2.87;1.30;;;17.80;99.90;;;;;;5069113;28;20486;-60
2022/06/16 07:24:26;;;;;;;3.63;1.30;;;17.90;99.90;;;;;;5069630;28;20386;-59
2022/06/16 07:26:52;;;;;;;3.60;1.33;;;17.90;99.90;;;;;;5069339;28;20547;-60
2022/06/16 07:29:17;;;;;;;1.90;1.20;;;17.90;99.90;;;;;;5069379;28;20406;-60
2022/06/16 07:31:43;;;;;;;2.67;1.10;;;18.00;99.90;;;;;;5070248;28;20468;-58
2022/06/16 07:34:09;;;;;;;3.33;1.20;;;18.00;99.90;;;;;;5070804;28;20455;-60
2022/06/16 07:36:35;;;;;;;3.40;1.50;;;18.10;99.90;;;;;;5073557;28;20446;-61
2022/06/16 07:39:00;;;;;;;1.73;1.20;;;18.00;99.90;;;;;;5075301;28;20430;-60
2022/06/16 07:41:32;;;;;;;2.63;1.20;;;18.00;99.90;;;;;;5074880;28;20689;-60
2022/06/16 07:44:10;;;;;;;2.10;0.90;;;18.00;99.90;;;;;;5073925;28;20573;-60
2022/06/16 07:46:36;;;;;;;2.85;1.30;;;18.10;99.90;;;;;;5078152;28;20483;-60
2022/06/16 07:49:13;;;;;;;2.80;1.13;;;18.10;99.90;;;;;;5078148;28;20812;-60
2022/06/16 07:51:40;;;;;;;3.53;1.23;;;18.10;99.90;;;;;;5077704;28;20393;-61
2022/06/16 07:54:06;;;;;;;4.63;1.30;;;18.10;99.90;;;;;;5077360;28;20488;-60
2022/06/16 07:56:31;;;;;;;3.03;1.00;;;18.20;99.90;;;;;;5078138;28;20484;-60
2022/06/16 07:58:57;;;;;;;3.10;1.30;;;18.10;99.90;;;;;;5095610;28;20388;-60
2022/06/16 08:01:23;;;;;;;1.80;1.10;;;18.00;99.90;;;;;;5074659;28;20978;-59
2022/06/16 08:03:48;;;;;;;3.53;1.50;;;18.00;99.90;;;;;;5073566;28;20710;-60
2022/06/16 08:06:18;;;;;;;2.37;1.20;;;18.00;99.90;;;;;;5077637;28;20467;-60
2022/06/16 08:08:44;;;;;;;3.23;1.10;;;18.10;99.90;;;;;;5079562;28;20389;-59
2022/06/16 08:12:03;;;;;;;2.10;0.93;;;18.20;99.90;;;;;;5079799;28;20479;-60
2022/06/16 08:13:59;;;;;;;3.55;1.00;;;18.30;99.90;;;;;;5080939;28;20394;-60
2022/06/16 08:16:25;;;;;;;2.90;1.05;;;18.40;99.90;;;;;;5083291;28;20377;-60
2022/06/16 08:18:51;;;;;;;2.10;0.90;;;18.40;99.90;;;;;;5083473;28;20406;-60
2022/06/16 08:21:17;;;;;;;1.35;0.90;;;18.30;99.90;;;;;;5098265;28;20522;-60
2022/06/16 08:23:42;;;;;;;4.05;1.35;;;18.40;99.90;;;;;;5081152;28;20425;-59
2022/06/16 08:26:09;;;;;;;3.23;1.50;;;18.50;99.90;;;;;;5099316;28;20483;-59
2022/06/16 08:28:36;;;;;;;3.78;1.30;;;18.40;99.90;;;;;;5083906;28;20593;-58
2022/06/16 08:31:02;;;;;;;4.07;1.20;;;18.20;99.90;;;;;;5085204;28;20390;-57
2022/06/16 08:33:28;;;;;;;2.90;1.00;;;18.20;99.90;;;;;;5085517;28;20454;-59
2022/06/16 08:35:53;;;;;;;2.67;1.20;;;18.10;99.90;;;;;;5081781;28;20490;-59
2022/06/16 08:38:19;;;;;;;2.63;1.00;;;18.10;99.90;;;;;;5081769;28;20377;-59
2022/06/16 08:40:47;;;;;;;2.15;1.08;;;18.10;99.90;;;;;;5083295;28;20409;-59
2022/06/16 08:43:27;;;;;;;4.82;1.10;;;18.10;99.90;;;;;;5083422;28;20396;-59
2022/06/16 08:46:00;;;;;;;1.85;0.80;;;18.10;99.90;;;;;;5083199;28;20382;-59
2022/06/16 08:48:45;;;;;;;4.05;1.13;;;18.20;99.90;;;;;;5084441;28;20455;-60
2022/06/16 08:51:33;;;;;;;1.70;0.93;;;18.30;99.90;;;;;;5084541;28;20646;-59
2022/06/16 08:54:05;;;;;;;3.22;0.90;;;18.40;99.90;;;;;;5082448;28;20401;-59
2022/06/16 08:56:42;;;;;;;2.20;0.80;;;18.40;99.90;;;;;;5080850;28;20699;-59
2022/06/16 08:59:31;;;;;;;2.97;1.05;;;18.30;99.90;;;;;;5080624;28;20554;-58
2022/06/16 09:02:04;;;;;;;1.58;0.80;;;18.40;99.90;;;;;;5081716;28;20482;-59
2022/06/16 09:04:39;;;;;;;1.10;0.60;;;18.60;99.90;;;;;;5083433;28;20555;-59
2022/06/16 09:07:30;;;;;;;1.92;0.88;;;18.70;99.90;;;;;;5080256;28;20382;-59
2022/06/16 09:10:14;;;;;;;4.25;0.80;;;18.90;99.90;;;;;;5081118;28;20840;-59
2022/06/16 09:13:10;;;;;;;3.87;1.07;;;18.90;99.90;;;;;;5083017;28;20390;-59
2022/06/16 09:15:42;;;;;;;1.97;0.80;;;18.80;99.90;;;;;;5083450;28;20474;-59
2022/06/16 09:18:07;;;;;;;2.33;0.80;;;18.60;99.90;;;;;;5080722;28;20467;-59
2022/06/16 09:21:12;;;;;;;1.33;0.80;;;18.60;99.90;;;;;;5080399;28;20479;-58
2022/06/16 09:24:08;;;;;;;2.30;0.75;;;18.50;99.90;;;;;;5082049;28;20857;-59
2022/06/16 09:26:40;;;;;;;2.13;0.77;;;18.60;99.90;;;;;;5081273;28;20421;-59
2022/06/16 09:29:14;;;;;;;1.60;0.70;;;18.60;99.90;;;;;;5081593;28;20407;-60
2022/06/16 09:32:15;;;;;;;1.60;0.68;;;18.70;99.90;;;;;;5084889;28;20405;-59
2022/06/16 09:34:50;;;;;;;1.33;0.60;;;18.80;99.90;;;;;;5085979;28;20378;-59
2022/06/16 09:37:21;;;;;;;1.70;0.77;;;19.00;99.90;;;;;;5087790;28;20392;-59
2022/06/16 09:39:53;;;;;;;2.00;0.90;;;19.10;99.90;;;;;;5086859;28;20808;-59
2022/06/16 09:42:34;;;;;;;1.23;0.73;;;19.20;99.90;;;;;;5085816;28;20402;-59
2022/06/16 09:45:19;;;;;;;1.35;0.80;;;19.20;99.90;;;;;;5085844;28;20462;-59
2022/06/16 09:48:08;;;;;;;2.00;0.90;;;19.30;99.90;;;;;;5083806;28;20431;-59
2022/06/16 09:50:52;;;;;;;1.48;0.93;;;19.20;99.90;;;;;;5080551;28;20378;-59
2022/06/16 09:53:42;;;;;;;2.40;0.90;;;19.30;99.90;;;;;;5083166;28;20439;-60
2022/06/16 09:56:19;;;;;;;1.33;0.75;;;19.40;99.90;;;;;;5082053;28;20490;-59
2022/06/16 09:58:55;;;;;;;1.92;0.90;;;19.40;99.90;;;;;;5083770;28;20396;-59
2022/06/16 10:01:24;;;;;;;3.72;0.80;;;19.50;99.90;;;;;;5082279;28;20440;-59
2022/06/16 10:03:58;;;;;;;1.33;0.82;;;19.40;99.90;;;;;;5082817;28;20665;-59
2022/06/16 10:06:29;;;;;;;2.55;0.70;;;19.50;99.90;;;;;;5083731;28;20790;-59
2022/06/16 10:09:05;;;;;;;3.97;2.33;;;19.60;99.90;;;;;;5084608;28;20446;-60
2022/06/16 10:11:40;;;;;;;3.42;1.38;;;19.60;99.90;;;;;;5086023;28;20751;-59
2022/06/16 10:14:15;;;;;;;1.75;0.93;;;19.60;99.90;;;;;;5085123;28;20393;-60
2022/06/16 10:17:00;;;;;;;1.52;0.70;;;19.70;99.90;;;;;;5087981;28;20812;-61
2022/06/16 10:19:32;;;;;;;1.67;0.80;;;19.70;99.90;;;;;;5089511;28;20382;-61
2022/06/16 10:21:59;;;;;;;2.08;0.82;;;19.80;99.90;;;;;;5090289;28;20412;-61
2022/06/16 10:24:51;;;;;;;3.20;1.07;;;19.70;99.90;;;;;;5090752;28;20409;-59
2022/06/16 10:27:19;;;;;;;2.80;1.10;;;19.70;99.90;;;;;;5089536;28;20386;-59
2022/06/16 10:29:56;;;;;;;1.73;1.00;;;19.80;99.90;;;;;;5091786;28;20374;-59
2022/06/16 10:32:44;;;;;;;2.30;1.00;;;19.90;99.90;;;;;;5088612;28;20693;-59
2022/06/16 10:35:17;;;;;;;1.85;0.90;;;20.00;99.90;;;;;;5086337;28;20410;-60
2022/06/16 10:37:45;;;;;;;2.88;1.00;;;20.10;99.90;;;;;;5087386;28;20382;-59
2022/06/16 10:40:15;;;;;;;2.22;1.20;;;20.10;99.90;;;;;;5085718;28;20394;-60
2022/06/16 10:42:48;;;;;;;1.50;0.85;;;20.10;99.90;;;;;;5085242;28;20442;-60
2022/06/16 10:45:35;;;;;;;1.83;1.00;;;20.10;99.90;;;;;;5086319;28;20498;-60
2022/06/16 10:48:06;;;;;;;2.25;0.88;;;20.10;99.90;;;;;;5087958;28;20431;-59
2022/06/16 10:50:37;;;;;;;1.98;0.70;;;20.00;99.90;;;;;;5086455;28;20377;-59
2022/06/16 10:53:26;;;;;;;3.05;1.10;;;20.00;99.90;;;;;;5103900;28;20385;-59
2022/06/16 10:56:02;;;;;;;2.13;0.90;;;20.20;99.90;;;;;;5087218;28;20401;-60
2022/06/16 10:58:41;;;;;;;3.00;0.82;;;20.20;99.90;;;;;;5085889;28;20461;-60
2022/06/16 11:01:17;;;;;;;2.93;1.20;;;20.10;99.90;;;;;;5084528;28;20412;-61
2022/06/16 11:03:46;;;;;;;3.28;0.95;;;20.20;99.90;;;;;;5084273;28;20409;-61
2022/06/16 11:06:14;;;;;;;4.83;1.30;;;20.30;99.90;;;;;;5080746;28;20465;-61
2022/06/16 11:08:45;;;;;;;1.65;1.00;;;20.30;99.90;;;;;;5082488;28;20683;-60
2022/06/16 11:11:11;;;;;;;2.90;1.10;;;20.30;99.90;;;;;;5081713;28;20776;-60
2022/06/16 11:13:44;;;;;;;1.50;0.98;;;20.20;99.90;;;;;;5096412;28;20397;-61
2022/06/16 11:16:22;;;;;;;1.95;0.93;;;20.20;99.90;;;;;;5081274;28;20370;-61
2022/06/16 11:18:53;;;;;;;2.75;1.00;;;20.30;99.90;;;;;;5083407;28;20555;-61
2022/06/16 11:21:28;;;;;;;2.65;1.00;;;20.40;99.90;;;;;;5080880;28;20398;-60
2022/06/16 11:23:57;;;;;;;3.03;0.90;;;20.50;99.90;;;;;;5078317;28;20421;-61
2022/06/16 11:26:28;;;;;;;2.67;1.50;;;20.60;99.90;;;;;;5077711;28;20457;-62
2022/06/16 11:29:23;;;;;;;1.77;1.20;;;20.70;99.90;;;;;;5077199;28;20382;-61
2022/06/16 11:32:14;;;;;;;2.90;1.00;;;20.80;99.90;;;;;;5076358;28;20736;-61
2022/06/16 11:34:42;;;;;;;2.25;1.05;;;20.80;99.90;;;;;;5069714;28;20415;-61
2022/06/16 11:37:07;;;;;;;2.60;0.98;;;20.80;99.90;;;;;;5081018;28;20392;-61
2022/06/16 11:40:11;;;;;;;1.97;1.20;;;20.60;99.90;;;;;;5082720;28;20457;-61
2022/06/16 11:43:14;;;;;;;2.83;1.42;;;20.80;99.90;;;;;;5080937;28;20386;-62
2022/06/16 11:45:44;;;;;;;2.63;1.20;;;21.10;99.90;;;;;;5083309;28;20362;-62
2022/06/16 11:48:30;;;;;;;2.00;1.00;;;21.50;99.90;;;;;;5080158;28;20381;-62
2022/06/16 11:51:20;;;;;;;1.87;0.90;;;21.60;99.90;;;;;;5083473;28;21097;-61
2022/06/16 11:53:57;;;;;;;1.52;0.85;;;21.70;99.90;;;;;;5082315;28;20420;-61
2022/06/16 11:56:48;;;;;;;2.67;1.07;;;21.90;99.90;;;;;;5081802;28;20415;-61
2022/06/16 11:59:39;;;;;;;2.15;1.15;;;21.90;99.90;;;;;;5082212;28;20438;-62
2022/06/16 12:02:36;;;;;;;2.85;0.93;;;22.10;99.90;;;;;;5080969;28;20398;-62
2022/06/16 12:05:27;;;;;;;1.77;1.00;;;22.00;99.90;;;;;;5082540;28;20459;-61
2022/06/16 12:08:10;;;;;;;3.30;1.10;;;22.00;99.90;;;;;;5082419;28;20381;-61
2022/06/16 12:10:50;;;;;;;2.65;0.90;;;22.40;99.90;;;;;;5084879;28;20647;-60
2022/06/16 12:13:39;;;;;;;2.45;0.95;;;22.50;99.90;;;;;;5086874;28;20400;-60
2022/06/16 12:16:09;;;;;;;3.13;1.10;;;22.90;99.90;;;;;;5086437;28;20377;-60
2022/06/16 12:18:50;;;;;;;2.00;0.83;;;23.30;99.90;;;;;;5088886;28;20876;-60
2022/06/16 12:21:23;;;;;;;2.40;0.88;;;23.20;99.90;;;;;;5087237;28;20397;-61
2022/06/16 12:23:58;;;;;;;2.47;0.90;;;22.80;99.90;;;;;;5085481;28;20414;-61
2022/06/16 12:26:25;;;;;;;3.85;0.95;;;23.00;99.90;;;;;;5086864;28;20390;-60
2022/06/16 12:29:08;;;;;;;2.33;0.90;;;22.80;99.90;;;;;;5086591;28;20789;-61
2022/06/16 12:31:55;;;;;;;1.83;0.80;;;22.70;99.90;;;;;;5088484;28;20812;-62
2022/06/16 12:34:36;;;;;;;2.90;1.10;;;22.90;99.90;;;;;;5086161;28;20386;-58
2022/06/16 12:37:08;;;;;;;2.97;1.10;;;23.30;99.90;;;;;;5086092;28;20378;-59
2022/06/16 12:40:00;;;;;;;3.67;1.20;;;23.40;99.90;;;;;;5087589;28;20488;-59
2022/06/16 12:42:31;;;;;;;2.90;0.85;;;23.10;99.90;;;;;;5088152;28;20414;-59
2022/06/16 12:45:04;;;;;;;5.93;0.87;;;22.90;99.90;;;;;;5084913;28;20662;-59
2022/06/16 12:47:33;;;;;;;2.40;0.95;;;22.70;99.90;;;;;;5077370;28;20385;-59
2022/06/16 12:50:30;;;;;;;2.03;0.82;;;22.50;99.90;;;;;;5078662;28;20378;-59
2022/06/16 12:53:04;;;;;;;1.10;0.70;;;22.50;99.90;;;;;;5080447;28;20443;-59
2022/06/16 12:55:42;;;;;;;1.77;0.90;;;23.20;99.90;;;;;;5077816;28;20386;-59
2022/06/16 12:58:17;;;;;;;2.08;0.82;;;23.30;99.90;;;;;;5078594;28;20662;-59
2022/06/16 13:00:49;;;;;;;2.42;0.80;;;23.10;99.90;;;;;;5079395;28;20489;-59
2022/06/16 13:03:25;;;;;;;2.60;1.00;;;22.90;99.90;;;;;;5079400;28;20785;-59
2022/06/16 13:05:53;;;;;;;3.17;0.90;;;22.70;99.90;;;;;;5094581;28;20474;-59
2022/06/16 13:08:21;;;;;;;2.40;1.00;;;22.60;99.90;;;;;;5078492;28;20366;-58
2022/06/16 13:10:51;;;;;;;2.65;0.98;;;22.60;99.90;;;;;;5077555;28;20390;-59
2022/06/16 13:13:27;;;;;;;2.65;1.00;;;22.70;99.90;;;;;;5078632;28;20382;-60
2022/06/16 13:15:55;;;;;;;3.63;1.10;;;23.00;99.90;;;;;;5077931;28;20518;-60
2022/06/16 13:18:30;;;;;;;1.15;0.70;;;23.50;99.90;;;;;;5079950;28;20804;-60
2022/06/16 13:21:05;;;;;;;2.42;0.90;;;23.80;99.90;;;;;;5081493;28;20445;-60
2022/06/16 13:23:37;;;;;;;5.60;0.90;;;23.50;99.90;;;;;;5080015;28;20481;-60
2022/06/16 13:26:16;;;;;;;3.38;0.98;;;23.40;99.90;;;;;;5080932;28;20714;-60
2022/06/16 13:28:59;;;;;;;3.90;1.20;;;23.10;99.90;;;;;;5081346;28;20606;-59
2022/06/16 13:31:29;;;;;;;2.60;1.00;;;23.10;99.90;;;;;;5083359;28;20390;-60